createdAt,value
2022-12-08T00:00:18.347Z,99924.34
2022-12-08T00:01:25.102Z,99933.16
2022-12-08T00:02:29.236Z,99937.42
2022-12-08T00:03:34.311Z,99944.41
2022-12-08T00:04:38.499Z,99939.98
2022-12-08T00:05:49.567Z,99950.52
2022-12-08T00:06:53.492Z,99946.09
2022-12-08T00:07:57.510Z,99946.94
2022-12-08T00:09:01.476Z,99945.08
2022-12-08T00:10:25.175Z,99905.19
2022-12-08T00:11:15.626Z,99945.08
2022-12-08T00:12:19.616Z,99943.39
2022-12-08T00:13:23.624Z,99945.15
2022-12-08T00:14:30.109Z,99934.53
2022-12-08T00:15:33.999Z,99937.17
2022-12-08T00:16:38.004Z,99943.29
2022-12-08T00:17:41.899Z,99947.61
2022-12-08T00:18:46.334Z,99949.34
2022-12-08T00:19:50.303Z,99956.30
2022-12-08T00:20:58.900Z,99956.30
2022-12-08T00:22:03.150Z,99952.74
2022-12-08T00:23:07.075Z,99953.59
2022-12-08T00:24:11.168Z,99952.64
2022-12-08T00:25:15.098Z,99950.84
2022-12-08T00:26:19.016Z,99950.84
2022-12-08T00:27:30.090Z,99951.73
2022-12-08T00:28:34.490Z,99953.41
2022-12-08T00:29:38.661Z,99951.73
2022-12-08T00:30:43.529Z,99951.73
2022-12-08T00:31:48.001Z,99955.10
2022-12-08T00:32:51.989Z,99967.37
2022-12-08T00:33:55.958Z,99965.58
2022-12-08T00:35:00.044Z,99965.47
2022-12-08T00:36:12.494Z,99969.90
2022-12-08T00:37:16.347Z,99925.43
2022-12-08T00:38:20.225Z,99964.63
2022-12-08T00:39:24.187Z,99960.20
2022-12-08T00:40:28.388Z,99956.65
2022-12-08T00:41:32.248Z,99958.27
2022-12-08T00:42:36.116Z,99958.27
2022-12-08T00:43:40.057Z,99952.05
2022-12-08T00:44:45.665Z,99952.05
2022-12-08T00:45:49.648Z,99949.34
2022-12-08T00:46:53.812Z,99948.39
2022-12-08T00:47:57.739Z,99950.95
2022-12-08T00:49:02.066Z,99950.95
2022-12-08T00:50:07.192Z,99957.07
2022-12-08T00:51:11.304Z,99962.34
2022-12-08T00:52:15.266Z,99956.13
2022-12-08T00:53:19.314Z,99964.98
2022-12-08T00:54:31.629Z,99922.30
2022-12-08T00:55:35.624Z,99957.84
2022-12-08T00:56:39.902Z,99960.48
2022-12-08T00:57:43.874Z,99958.69
2022-12-08T00:58:47.824Z,99955.10
2022-12-08T00:59:53.521Z,99947.30
2022-12-08T01:00:57.786Z,99947.96
2022-12-08T01:02:05.630Z,99951.55
2022-12-08T01:03:23.157Z,99947.12
2022-12-08T01:04:44.345Z,99952.28
2022-12-08T01:05:49.931Z,99947.89
2022-12-08T01:07:03.199Z,99948.80
2022-12-08T01:08:10.499Z,99951.38
2022-12-08T01:09:17.022Z,99948.80
2022-12-08T01:10:21.134Z,99948.80
2022-12-08T01:11:25.104Z,99951.38
2022-12-08T01:12:30.741Z,99956.64
2022-12-08T01:13:34.869Z,99950.34
2022-12-08T01:14:38.802Z,99952.11
2022-12-08T01:15:42.770Z,99951.19
2022-12-08T01:16:47.316Z,99952.88
2022-12-08T01:17:51.387Z,99955.63
2022-12-08T01:18:56.908Z,99955.63
2022-12-08T01:20:01.465Z,99956.47
2022-12-08T01:21:07.596Z,99952.03
2022-12-08T01:22:11.630Z,99956.36
2022-12-08T01:23:15.836Z,99955.45
2022-12-08T01:24:21.617Z,99949.33
2022-12-08T01:25:25.481Z,99956.36
2022-12-08T01:26:30.026Z,99959.77
2022-12-08T01:27:34.055Z,99961.56
2022-12-08T01:28:38.733Z,99958.08
2022-12-08T01:29:42.684Z,99969.41
2022-12-08T01:30:46.871Z,99967.50
2022-12-08T01:31:50.882Z,99963.18
2022-12-08T01:32:54.836Z,99966.66
2022-12-08T01:33:58.747Z,99970.14
2022-12-08T01:35:02.640Z,99968.38
2022-12-08T01:36:07.032Z,99667.33
2022-12-08T01:37:11.145Z,99667.33
2022-12-08T01:38:15.184Z,99975.34
2022-12-08T01:39:22.975Z,99975.34
2022-12-08T01:40:27.130Z,99979.67
2022-12-08T01:41:33.640Z,99981.39
2022-12-08T01:42:37.626Z,99978.83
2022-12-08T01:43:47.269Z,99977.03
2022-12-08T01:45:00.136Z,99977.03
2022-12-08T01:46:04.115Z,99970.91
2022-12-08T01:47:10.093Z,99985.80
2022-12-08T01:48:17.123Z,99986.67
2022-12-08T01:49:26.906Z,99984.10
2022-12-08T01:50:32.888Z,99984.88
2022-12-08T01:51:39.826Z,99984.88
2022-12-08T01:53:01.919Z,99984.88
2022-12-08T01:54:07.475Z,99993.70
2022-12-08T01:55:17.192Z,99990.22
2022-12-08T01:56:30.356Z,99987.59
2022-12-08T01:57:45.975Z,99986.56
2022-12-08T01:58:52.981Z,99993.70
2022-12-08T02:00:03.297Z,99991.17
2022-12-08T02:01:07.716Z,99993.70
2022-12-08T02:02:13.321Z,99986.73
2022-12-08T02:03:26.040Z,99987.59
2022-12-08T02:04:33.054Z,99995.42
2022-12-08T02:05:40.048Z,99988.28
2022-12-08T02:06:47.299Z,99988.28
2022-12-08T02:07:52.663Z,99986.48
2022-12-08T02:08:57.998Z,99978.58
2022-12-08T02:10:03.487Z,99984.63
2022-12-08T02:11:10.118Z,99984.63
2022-12-08T02:12:14.427Z,99989.90
2022-12-08T02:13:21.175Z,99987.16
2022-12-08T02:14:25.723Z,99987.16
2022-12-08T02:16:02.365Z,99990.56
2022-12-08T02:17:18.248Z,99992.36
2022-12-08T02:18:28.089Z,100000.34
2022-12-08T02:19:51.674Z,100001.19
2022-12-08T02:21:04.903Z,99997.64
2022-12-08T02:22:12.086Z,100002.03
2022-12-08T02:23:37.082Z,99998.48
2022-12-08T02:24:59.070Z,99993.20
2022-12-08T02:26:39.358Z,99998.48
2022-12-08T02:28:06.906Z,99998.48
2022-12-08T02:29:39.017Z,100001.19
2022-12-08T02:31:07.016Z,100004.67
2022-12-08T02:32:26.127Z,100006.47
2022-12-08T02:33:42.070Z,100007.42
2022-12-08T02:34:51.998Z,100006.47
2022-12-08T02:36:13.681Z,100007.31
2022-12-08T02:37:35.535Z,100012.59
2022-12-08T02:38:51.520Z,100017.02
2022-12-08T02:39:58.734Z,100017.02
2022-12-08T02:41:34.653Z,100020.50
2022-12-08T02:42:44.319Z,100023.91
2022-12-08T02:43:52.922Z,100023.00
2022-12-08T02:45:11.954Z,100026.48
2022-12-08T02:46:34.432Z,100017.72
2022-12-08T02:47:39.220Z,100019.23
2022-12-08T02:48:43.977Z,100006.89
2022-12-08T02:49:48.457Z,100012.94
2022-12-08T02:50:52.630Z,100011.91
2022-12-08T02:52:20.752Z,100004.95
2022-12-08T02:53:29.320Z,100008.32
2022-12-08T02:54:34.701Z,100013.59
2022-12-08T02:56:10.200Z,100006.56
2022-12-08T02:57:23.117Z,100003.05
2022-12-08T02:58:46.744Z,100009.20
2022-12-08T03:00:09.107Z,100002.13
2022-12-08T03:01:21.941Z,100010.96
2022-12-08T03:02:29.030Z,100007.41
2022-12-08T03:03:47.365Z,100002.13
2022-12-08T03:05:06.665Z,99999.56
2022-12-08T03:06:30.240Z,100003.05
2022-12-08T03:07:46.229Z,100004.77
2022-12-08T03:09:22.619Z,100005.61
2022-12-08T03:10:48.922Z,100006.45
2022-12-08T03:11:58.763Z,100006.45
2022-12-08T03:13:08.339Z,100010.05
2022-12-08T03:14:15.433Z,100009.09
2022-12-08T03:15:22.460Z,100009.09
2022-12-08T03:16:29.933Z,100013.52
2022-12-08T03:17:35.464Z,100017.96
2022-12-08T03:18:44.159Z,100008.17
2022-12-08T03:19:50.252Z,100020.42
2022-12-08T03:20:55.175Z,100020.42
2022-12-08T03:22:01.604Z,100016.83
2022-12-08T03:23:13.162Z,100017.67
2022-12-08T03:24:19.834Z,100024.75
2022-12-08T03:25:27.300Z,100022.11
2022-12-08T03:26:43.558Z,100022.22
2022-12-08T03:27:48.827Z,99989.90
2022-12-08T03:28:53.246Z,100022.28
2022-12-08T03:30:00.126Z,100022.28
2022-12-08T03:31:07.392Z,100022.28
2022-12-08T03:32:51.005Z,100020.42
2022-12-08T03:33:59.076Z,100028.41
2022-12-08T03:35:08.349Z,100027.56
2022-12-08T03:36:16.421Z,100024.01
2022-12-08T03:37:29.495Z,100024.01
2022-12-08T03:38:45.051Z,100020.42
2022-12-08T03:40:15.505Z,100023.83
2022-12-08T03:41:34.953Z,100029.95
2022-12-08T03:44:02.560Z,100022.88
2022-12-08T03:45:12.894Z,100026.47
2022-12-08T03:46:53.110Z,100021.19
2022-12-08T03:47:57.096Z,100025.52
2022-12-08T03:49:16.913Z,100028.93
2022-12-08T03:50:30.667Z,100021.02
2022-12-08T03:51:54.121Z,100032.41
2022-12-08T03:53:04.537Z,100035.05
2022-12-08T03:54:14.882Z,100039.48
2022-12-08T03:55:21.421Z,100034.38
2022-12-08T03:56:30.254Z,100025.70
2022-12-08T03:58:07.308Z,100032.66
2022-12-08T03:58:57.418Z,100032.84
2022-12-08T04:00:10.550Z,100040.58
2022-12-08T04:01:43.849Z,100027.39
2022-12-08T04:03:16.448Z,100024.08
2022-12-08T04:31:03.380Z,100040.86
2022-12-08T10:30:42.553Z,100241.99
2022-12-08T11:29:26.846Z,100245.05
2022-12-08T12:07:42.689Z,100229.88
2022-12-08T12:09:08.822Z,100228.01
2022-12-08T12:10:27.431Z,100232.52
2022-12-08T12:11:52.376Z,100237.03
2022-12-08T12:13:21.862Z,100235.16
2022-12-08T12:14:40.902Z,100233.47
2022-12-08T12:16:00.994Z,100237.03
2022-12-08T12:17:07.569Z,100232.69
2022-12-08T12:18:27.492Z,100228.43
2022-12-08T12:19:34.478Z,100228.67
2022-12-08T12:20:53.831Z,100226.98
2022-12-08T12:35:04.023Z,100233.19
2022-12-08T12:39:16.987Z,100228.95
2022-12-08T12:40:26.742Z,100231.50
2022-12-08T12:41:50.042Z,100241.11
2022-12-08T12:43:01.555Z,100242.66
2022-12-08T12:44:14.257Z,100232.09
2022-12-08T12:45:21.381Z,100239.06
2022-12-08T12:46:31.010Z,100237.20
2022-12-08T12:47:58.251Z,100237.20
2022-12-08T12:49:27.964Z,100258.51
2022-12-08T12:50:43.437Z,100255.27
2022-12-08T12:51:52.748Z,100255.27
2022-12-08T12:52:56.060Z,100245.82
2022-12-08T12:54:20.837Z,100247.52
2022-12-08T18:54:04.349Z,100245.37
2022-12-08T19:13:57.112Z,100223.52
2022-12-08T19:15:21.308Z,100214.52
2022-12-08T19:19:01.478Z,100206.49
2022-12-08T19:34:40.332Z,100203.50
2022-12-08T19:35:50.719Z,100203.37
2022-12-08T19:37:07.108Z,100207.70
2022-12-08T19:38:12.759Z,100208.55
2022-12-08T19:39:32.841Z,100208.55
2022-12-08T19:40:49.801Z,100207.55
2022-12-08T19:44:45.953Z,100216.23
2022-12-08T20:04:07.402Z,100204.91
2022-12-08T20:05:46.009Z,100210.02
2022-12-08T20:21:03.491Z,100219.58
2022-12-08T20:24:38.917Z,100215.01
2022-12-08T20:25:50.973Z,100213.02
2022-12-08T20:28:18.107Z,100220.97
2022-12-08T20:29:37.611Z,100225.54
2022-12-08T20:31:56.191Z,100221.13
2022-12-08T20:34:53.790Z,100233.38
2022-12-08T20:37:06.886Z,100223.48
2022-12-08T20:38:21.796Z,100233.08
2022-12-08T20:40:50.953Z,100223.61
2022-12-08T20:42:03.893Z,100220.85
2022-12-08T20:43:10.952Z,100226.13
2022-12-08T21:08:10.180Z,100233.38
2022-12-08T21:09:13.525Z,100228.88
2022-12-08T21:10:20.988Z,100222.55
2022-12-08T21:51:59.233Z,100214.55
2022-12-08T21:53:50.792Z,100217.77
2022-12-08T21:55:07.161Z,100210.55
2022-12-08T21:56:11.713Z,100210.41
2022-12-08T21:57:26.662Z,100208.50
2022-12-08T21:58:28.913Z,100203.98
2022-12-08T21:59:53.778Z,100208.34
2022-12-08T22:02:42.537Z,100209.81
2022-12-08T22:03:41.166Z,100217.66
2022-12-08T22:06:19.037Z,100210.51
2022-12-08T22:57:49.462Z,100177.13
2022-12-08T22:58:56.692Z,100177.13
2022-12-08T23:01:09.448Z,100160.47
2022-12-08T23:20:05.577Z,100133.04
2022-12-08T23:21:16.862Z,100127.77
2022-12-08T23:22:24.040Z,100130.31
2022-12-08T23:23:29.802Z,100130.31
2022-12-08T23:24:36.874Z,100138.83
2022-12-08T23:25:46.079Z,100138.83
2022-12-08T23:26:56.524Z,100140.40
2022-12-08T23:28:01.537Z,100134.28
2022-12-08T23:29:09.077Z,100136.75
2022-12-08T23:30:20.020Z,100137.50
2022-12-08T23:31:22.855Z,100146.29
2022-12-08T23:32:31.463Z,100138.28
2022-12-08T23:33:52.461Z,100147.91
2022-12-08T23:54:03.987Z,100161.70
2022-12-08T23:55:18.914Z,100155.34
2022-12-08T23:56:29.910Z,100163.92
2022-12-08T23:57:32.332Z,100163.92
2022-12-08T23:59:58.842Z,100168.34
